Time;durP1;ratioP1;P1;durP2;ratioP2;P2;SDS_P1;SDS_P2;PMS_P1;PMS_P2;Temp;Humidity;BMP_temperature;BMP_pressure;BME280_temperature;BME280_humidity;BME280_pressure;Samples;Min_cycle;Max_cycle;Signal;HPM_P1;HPM_P2
2023/09/04 00:02:02;;;;;;;6.60;6.00;;;13.50;99.90;;;;;;5029784;28;20578;-64
2023/09/04 00:04:29;;;;;;;6.43;5.83;;;13.50;99.90;;;;;;5032282;28;20494;-61
2023/09/04 00:06:59;;;;;;;6.67;5.50;;;13.50;99.90;;;;;;5028669;28;20471;-61
2023/09/04 00:09:27;;;;;;;5.60;5.10;;;13.50;99.90;;;;;;5029163;28;21354;-62
2023/09/04 00:11:55;;;;;;;6.77;6.27;;;13.40;99.90;;;;;;5027972;28;20508;-62
2023/09/04 00:14:23;;;;;;;6.50;5.90;;;13.40;99.90;;;;;;5043795;28;20498;-62
2023/09/04 00:16:51;;;;;;;6.23;5.73;;;13.40;99.90;;;;;;5041567;28;20540;-61
2023/09/04 00:19:19;;;;;;;6.50;6.00;;;13.40;99.90;;;;;;5033997;28;20612;-59
2023/09/04 00:21:47;;;;;;;7.40;6.10;;;13.40;99.90;;;;;;5029397;28;21064;-60
2023/09/04 00:24:17;;;;;;;7.93;6.13;;;13.30;99.90;;;;;;5032837;28;20462;-65
2023/09/04 00:26:45;;;;;;;6.17;5.67;;;13.30;99.90;;;;;;5029937;28;20498;-63
2023/09/04 00:29:13;;;;;;;6.50;6.00;;;13.30;99.90;;;;;;5033906;28;20540;-61
2023/09/04 00:31:41;;;;;;;6.20;5.77;;;13.30;99.90;;;;;;5025812;28;20468;-62
2023/09/04 00:34:09;;;;;;;7.10;6.40;;;13.30;99.90;;;;;;5033150;28;20524;-59
2023/09/04 00:36:37;;;;;;;6.50;5.90;;;13.30;99.90;;;;;;5025045;28;20690;-60
2023/09/04 00:39:06;;;;;;;6.37;5.87;;;13.20;99.90;;;;;;5026178;28;21083;-59
2023/09/04 00:41:35;;;;;;;5.93;5.53;;;13.20;99.90;;;;;;5030346;28;20479;-62
2023/09/04 00:44:03;;;;;;;6.77;6.17;;;13.20;99.90;;;;;;5036591;28;20561;-61
2023/09/04 00:46:32;;;;;;;6.60;6.10;;;13.20;99.90;;;;;;5037252;28;20490;-60
2023/09/04 00:49:00;;;;;;;6.63;6.13;;;13.20;99.90;;;;;;5036092;28;20993;-60
2023/09/04 00:51:29;;;;;;;5.80;5.30;;;13.20;99.90;;;;;;5030925;28;20608;-59
2023/09/04 00:53:57;;;;;;;6.73;6.03;;;13.20;99.90;;;;;;5030839;28;20484;-60
2023/09/04 00:56:26;;;;;;;6.30;5.80;;;13.10;99.90;;;;;;5033450;28;20587;-58
2023/09/04 00:58:55;;;;;;;7.00;6.40;;;13.10;99.90;;;;;;5027984;28;20479;-61
2023/09/04 01:01:23;;;;;;;6.33;5.83;;;13.10;99.90;;;;;;5032801;28;20560;-63
2023/09/04 01:03:52;;;;;;;6.47;5.90;;;13.10;99.90;;;;;;5039136;28;20478;-59
2023/09/04 01:06:20;;;;;;;6.00;5.50;;;13.10;99.90;;;;;;5037016;28;20649;-59
2023/09/04 01:08:48;;;;;;;7.47;6.80;;;13.00;99.90;;;;;;5043626;28;20544;-62
2023/09/04 01:11:22;;;;;;;6.40;5.90;;;13.00;99.90;;;;;;5037564;28;20602;-59
2023/09/04 01:13:52;;;;;;;6.40;5.90;;;13.00;99.90;;;;;;5043315;28;20585;-61
2023/09/04 01:16:23;;;;;;;5.70;5.20;;;13.00;99.90;;;;;;5045456;28;20582;-58
2023/09/04 01:18:52;;;;;;;6.40;5.87;;;13.00;99.90;;;;;;5041340;28;20504;-59
2023/09/04 01:21:21;;;;;;;6.03;5.63;;;13.00;99.90;;;;;;5039403;28;20494;-62
2023/09/04 01:23:49;;;;;;;5.80;5.30;;;12.90;99.90;;;;;;5040533;28;21231;-63
2023/09/04 01:26:26;;;;;;;6.70;6.20;;;12.90;99.90;;;;;;5045139;28;20509;-59
2023/09/04 01:29:04;;;;;;;6.40;5.90;;;12.90;99.90;;;;;;5044471;28;20505;-63
2023/09/04 01:31:36;;;;;;;5.90;5.40;;;12.90;99.90;;;;;;5043622;28;20461;-59
2023/09/04 01:34:09;;;;;;;6.27;5.83;;;12.90;99.90;;;;;;5047478;28;20466;-62
2023/09/04 01:36:40;;;;;;;5.80;5.40;;;12.90;99.90;;;;;;5041378;28;20617;-64
2023/09/04 01:39:08;;;;;;;6.37;5.60;;;12.80;99.90;;;;;;5045833;28;20472;-64
2023/09/04 01:41:38;;;;;;;6.20;5.60;;;12.80;99.90;;;;;;5041184;28;20512;-60
2023/09/04 01:44:06;;;;;;;6.73;6.23;;;12.90;99.90;;;;;;5034855;28;20466;-62
2023/09/04 01:46:35;;;;;;;6.13;5.70;;;12.80;99.90;;;;;;5040613;28;20590;-59
2023/09/04 01:49:03;;;;;;;6.57;6.00;;;12.80;99.90;;;;;;5042884;28;21001;-59
2023/09/04 01:51:31;;;;;;;6.60;6.00;;;12.80;99.90;;;;;;5033388;28;20501;-60
2023/09/04 01:54:00;;;;;;;6.13;5.63;;;12.80;99.90;;;;;;5034181;28;20467;-60
2023/09/04 01:56:28;;;;;;;6.30;5.70;;;12.70;99.90;;;;;;5032302;28;21128;-60
2023/09/04 01:58:56;;;;;;;6.73;6.20;;;12.70;99.90;;;;;;5030425;28;20479;-62
2023/09/04 02:01:24;;;;;;;6.07;5.63;;;12.70;99.90;;;;;;5028780;28;20498;-60
2023/09/04 02:03:57;;;;;;;7.47;6.87;;;12.70;99.90;;;;;;5042510;28;20466;-60
2023/09/04 02:06:28;;;;;;;6.57;5.97;;;12.70;99.90;;;;;;5039162;28;20581;-60
2023/09/04 02:08:56;;;;;;;5.70;5.23;;;12.70;99.90;;;;;;5044141;28;20822;-60
2023/09/04 02:11:26;;;;;;;6.67;6.00;;;12.70;99.90;;;;;;5043565;28;20462;-60
2023/09/04 02:13:54;;;;;;;6.10;5.50;;;12.60;99.90;;;;;;5038464;28;20474;-62
2023/09/04 02:16:22;;;;;;;6.23;5.63;;;12.60;99.90;;;;;;5040956;28;20489;-60
2023/09/04 02:18:51;;;;;;;5.83;5.43;;;12.60;99.90;;;;;;5038448;28;20563;-60
2023/09/04 02:21:19;;;;;;;5.97;5.50;;;12.60;99.90;;;;;;5044308;28;20836;-60
2023/09/04 02:23:48;;;;;;;6.53;6.03;;;12.60;99.90;;;;;;5037190;28;20983;-61
2023/09/04 02:26:16;;;;;;;6.03;5.53;;;12.50;99.90;;;;;;5038125;28;20487;-59
2023/09/04 02:28:45;;;;;;;5.90;5.50;;;12.50;99.90;;;;;;5034017;28;20586;-59
2023/09/04 02:31:13;;;;;;;6.03;5.53;;;12.50;99.90;;;;;;5036921;28;20528;-60
2023/09/04 02:33:45;;;;;;;6.40;5.90;;;12.50;99.90;;;;;;5032132;28;20467;-63
2023/09/04 02:36:13;;;;;;;6.10;5.67;;;12.50;99.90;;;;;;5031551;28;20498;-60
2023/09/04 02:38:41;;;;;;;6.40;5.90;;;12.50;99.90;;;;;;5037234;28;20865;-62
2023/09/04 02:41:09;;;;;;;7.00;6.40;;;12.50;99.90;;;;;;5041116;28;20513;-60
2023/09/04 02:43:37;;;;;;;6.70;6.10;;;12.40;99.90;;;;;;5039096;28;20470;-61
2023/09/04 02:46:07;;;;;;;6.50;5.90;;;12.40;99.90;;;;;;5033336;28;20728;-63
2023/09/04 02:48:35;;;;;;;6.23;5.63;;;12.40;99.90;;;;;;5037723;28;20472;-59
2023/09/04 02:51:03;;;;;;;6.57;6.00;;;12.40;99.90;;;;;;5043815;28;20550;-60
2023/09/04 02:53:32;;;;;;;6.63;6.00;;;12.40;99.90;;;;;;5036708;28;20498;-60
2023/09/04 02:56:00;;;;;;;6.37;5.87;;;12.40;99.90;;;;;;5033714;28;20496;-61
2023/09/04 02:58:28;;;;;;;8.10;6.30;;;12.40;99.90;;;;;;5033420;28;20474;-60
2023/09/04 03:00:57;;;;;;;6.63;6.10;;;12.40;99.90;;;;;;5034486;28;20505;-59
2023/09/04 03:03:27;;;;;;;6.83;6.33;;;12.30;99.90;;;;;;5037272;28;21014;-60
2023/09/04 03:05:55;;;;;;;7.40;6.80;;;12.30;99.90;;;;;;5036817;28;20486;-59
2023/09/04 03:08:23;;;;;;;6.80;6.10;;;12.30;99.90;;;;;;5040845;28;20484;-60
2023/09/04 03:10:51;;;;;;;6.67;6.07;;;12.30;99.90;;;;;;5034848;28;20466;-62
2023/09/04 03:13:19;;;;;;;6.53;6.03;;;12.30;99.90;;;;;;5028941;28;20743;-60
2023/09/04 03:15:47;;;;;;;7.30;6.70;;;12.30;99.90;;;;;;5033878;28;21029;-64
2023/09/04 03:18:15;;;;;;;6.83;6.17;;;12.30;99.90;;;;;;5040576;28;20844;-60
2023/09/04 03:20:44;;;;;;;6.83;6.20;;;12.30;99.90;;;;;;5042765;28;20490;-61
2023/09/04 03:23:12;;;;;;;6.33;5.83;;;12.20;99.90;;;;;;5042009;28;20509;-60
2023/09/04 03:25:40;;;;;;;6.80;6.20;;;12.20;99.90;;;;;;5041558;28;20628;-61
2023/09/04 03:28:08;;;;;;;6.60;6.10;;;12.20;99.90;;;;;;5039800;28;20467;-59
2023/09/04 03:30:36;;;;;;;7.53;6.10;;;12.20;99.90;;;;;;5040152;28;20470;-61
2023/09/04 03:33:05;;;;;;;6.33;5.83;;;12.20;99.90;;;;;;5041923;28;20951;-60
2023/09/04 03:35:33;;;;;;;6.27;5.77;;;12.20;99.90;;;;;;5039056;28;20491;-59
2023/09/04 03:38:03;;;;;;;7.13;6.50;;;12.20;99.90;;;;;;5043114;28;20583;-59
2023/09/04 03:40:31;;;;;;;7.13;6.43;;;12.10;99.90;;;;;;5042211;28;20560;-60
2023/09/04 03:42:59;;;;;;;7.60;7.00;;;12.10;99.90;;;;;;5039572;28;20553;-61
2023/09/04 03:45:33;;;;;;;8.40;7.73;;;12.10;99.90;;;;;;5041035;28;21002;-60
2023/09/04 03:48:01;;;;;;;6.73;6.13;;;12.10;99.90;;;;;;5040309;28;21152;-59
2023/09/04 03:50:29;;;;;;;8.60;7.43;;;12.10;99.90;;;;;;5035183;28;20462;-62
2023/09/04 03:52:57;;;;;;;7.80;7.10;;;12.10;99.90;;;;;;5026484;28;20821;-59
2023/09/04 03:55:26;;;;;;;7.50;6.90;;;12.10;99.90;;;;;;5029237;28;20491;-63
2023/09/04 03:57:54;;;;;;;8.77;7.90;;;12.10;99.90;;;;;;5028833;28;20474;-61
2023/09/04 04:00:22;;;;;;;8.70;7.97;;;12.10;99.90;;;;;;5032241;28;20569;-59
2023/09/04 04:02:51;;;;;;;8.83;8.03;;;12.10;99.90;;;;;;5036817;28;21022;-59
2023/09/04 04:05:20;;;;;;;8.47;7.77;;;12.00;99.90;;;;;;5035256;28;20573;-59
2023/09/04 04:07:48;;;;;;;8.13;7.33;;;12.00;99.90;;;;;;5036078;28;20470;-59
2023/09/04 04:10:16;;;;;;;8.60;7.80;;;12.00;99.90;;;;;;5036947;28;20560;-60
2023/09/04 04:12:46;;;;;;;8.30;7.60;;;12.10;99.90;;;;;;5036951;28;20556;-60
2023/09/04 04:15:14;;;;;;;8.43;7.73;;;12.00;99.90;;;;;;5038497;28;20479;-60
2023/09/04 04:17:42;;;;;;;8.60;7.70;;;12.00;99.90;;;;;;5041784;28;20528;-60
2023/09/04 04:20:11;;;;;;;7.60;6.90;;;12.00;99.90;;;;;;5038341;28;20532;-59
2023/09/04 04:22:40;;;;;;;7.63;6.93;;;12.00;99.90;;;;;;5029856;28;20506;-59
2023/09/04 04:25:09;;;;;;;7.53;6.93;;;12.00;99.90;;;;;;5032928;28;21189;-59
2023/09/04 04:27:38;;;;;;;7.80;7.10;;;12.00;99.90;;;;;;5036697;28;20553;-64
2023/09/04 04:30:09;;;;;;;7.37;6.70;;;12.00;99.90;;;;;;5037009;28;20475;-62
2023/09/04 04:32:38;;;;;;;8.57;7.77;;;12.00;99.90;;;;;;5036350;28;21046;-64
2023/09/04 04:35:07;;;;;;;8.57;7.10;;;11.90;99.90;;;;;;5033591;28;20502;-62
2023/09/04 04:37:35;;;;;;;7.23;6.63;;;11.90;99.90;;;;;;5031244;28;20563;-62
2023/09/04 04:40:04;;;;;;;7.30;6.70;;;11.90;99.90;;;;;;5030895;28;21054;-62
2023/09/04 04:42:32;;;;;;;7.37;6.67;;;11.90;99.90;;;;;;5024838;28;20490;-63
2023/09/04 04:45:00;;;;;;;7.57;6.80;;;11.90;99.90;;;;;;5031934;28;20515;-65
2023/09/04 04:47:30;;;;;;;7.83;6.40;;;11.90;99.90;;;;;;5033725;28;20470;-65
2023/09/04 04:49:58;;;;;;;7.73;7.13;;;11.90;99.90;;;;;;5036365;28;20835;-61
2023/09/04 04:52:26;;;;;;;7.43;6.83;;;11.90;99.90;;;;;;5032738;28;20466;-61
2023/09/04 04:54:54;;;;;;;7.67;7.00;;;11.90;99.90;;;;;;5034513;28;20996;-62
2023/09/04 04:57:22;;;;;;;7.80;7.10;;;11.90;99.90;;;;;;5038059;28;20477;-60
2023/09/04 04:59:50;;;;;;;8.17;7.37;;;11.90;99.90;;;;;;5030533;28;20463;-61
2023/09/04 05:02:18;;;;;;;8.30;7.60;;;11.90;99.90;;;;;;5035863;28;20920;-59
2023/09/04 05:04:48;;;;;;;8.80;8.03;;;11.90;99.90;;;;;;5032197;28;20488;-60
2023/09/04 05:07:16;;;;;;;8.30;7.43;;;11.90;99.90;;;;;;5034566;28;20498;-59
2023/09/04 05:09:44;;;;;;;9.63;7.90;;;11.90;99.90;;;;;;5032248;28;20849;-59
2023/09/04 05:12:12;;;;;;;8.50;7.80;;;11.90;99.90;;;;;;5036477;28;20474;-60
2023/09/04 05:14:40;;;;;;;8.33;7.63;;;12.00;99.90;;;;;;5024584;28;20917;-60
2023/09/04 05:17:08;;;;;;;8.80;8.00;;;12.00;99.90;;;;;;5035404;28;21163;-60
2023/09/04 05:19:36;;;;;;;8.10;7.40;;;12.00;99.90;;;;;;5033128;28;21082;-62
2023/09/04 05:22:06;;;;;;;8.40;7.60;;;12.00;99.90;;;;;;5032635;28;20560;-61
2023/09/04 05:24:34;;;;;;;8.70;7.90;;;12.00;99.90;;;;;;5023373;28;20912;-61
2023/09/04 05:27:03;;;;;;;8.67;7.93;;;12.00;99.90;;;;;;5022345;28;20474;-63
2023/09/04 05:29:31;;;;;;;8.93;8.23;;;12.10;99.90;;;;;;5027516;28;20485;-61
2023/09/04 05:31:59;;;;;;;8.43;7.73;;;12.10;99.90;;;;;;5031105;28;20533;-61
2023/09/04 05:34:27;;;;;;;8.20;7.43;;;12.10;99.90;;;;;;5031909;28;20521;-61
2023/09/04 05:36:56;;;;;;;7.80;7.20;;;12.20;99.90;;;;;;5027763;28;20485;-63
2023/09/04 05:39:25;;;;;;;8.53;7.83;;;12.20;99.90;;;;;;5036410;28;21854;-60
2023/09/04 05:41:53;;;;;;;8.40;7.70;;;12.20;99.90;;;;;;5033093;28;20577;-60
2023/09/04 05:44:21;;;;;;;8.47;7.77;;;12.30;99.90;;;;;;5027938;28;20475;-60
2023/09/04 05:46:49;;;;;;;8.57;7.90;;;12.30;99.90;;;;;;5025406;28;21088;-62
2023/09/04 05:49:17;;;;;;;8.40;7.60;;;12.40;99.90;;;;;;5034736;28;20470;-61
2023/09/04 05:51:45;;;;;;;7.97;7.27;;;12.50;99.90;;;;;;5036636;28;20905;-63
2023/09/04 05:54:13;;;;;;;7.87;7.07;;;12.50;99.90;;;;;;5043119;28;20545;-62
2023/09/04 05:56:43;;;;;;;8.70;7.80;;;12.50;99.90;;;;;;5045977;28;21191;-59
2023/09/04 05:59:12;;;;;;;10.30;7.43;;;12.60;99.90;;;;;;5046363;28;20485;-61
2023/09/04 06:01:40;;;;;;;9.10;8.30;;;12.60;99.90;;;;;;5046901;28;20841;-59
2023/09/04 06:04:11;;;;;;;8.40;7.60;;;12.70;99.90;;;;;;5044929;28;20527;-60
2023/09/04 06:06:39;;;;;;;8.30;7.63;;;12.80;99.90;;;;;;5042153;28;20587;-59
2023/09/04 06:09:08;;;;;;;8.47;7.80;;;12.80;99.90;;;;;;5045907;28;20470;-61
2023/09/04 06:11:36;;;;;;;8.30;7.60;;;12.90;99.90;;;;;;5043438;28;20466;-61
2023/09/04 06:14:05;;;;;;;7.90;7.10;;;13.00;99.90;;;;;;5042267;28;21025;-60
2023/09/04 06:16:34;;;;;;;9.63;8.63;;;13.00;99.90;;;;;;5046909;28;20577;-60
2023/09/04 06:19:02;;;;;;;10.60;9.50;;;13.10;99.90;;;;;;5043420;28;20527;-60
2023/09/04 06:21:30;;;;;;;11.53;10.10;;;13.20;99.90;;;;;;5042296;28;20510;-59
2023/09/04 06:23:58;;;;;;;11.00;10.00;;;13.20;99.90;;;;;;5040602;28;20495;-59
2023/09/04 06:26:26;;;;;;;12.40;11.30;;;13.30;99.90;;;;;;5044284;28;20578;-60
2023/09/04 06:28:54;;;;;;;10.80;9.80;;;13.40;99.90;;;;;;5044830;28;20477;-60
2023/09/04 06:31:24;;;;;;;10.83;9.80;;;13.50;99.90;;;;;;5036774;28;20570;-60
2023/09/04 06:33:52;;;;;;;13.47;12.13;;;13.60;99.90;;;;;;5043633;28;20493;-62
2023/09/04 06:36:20;;;;;;;12.73;11.43;;;13.70;99.90;;;;;;5040945;28;20581;-62
2023/09/04 06:38:48;;;;;;;13.97;12.70;;;13.80;99.90;;;;;;5036135;28;20635;-60
2023/09/04 06:41:16;;;;;;;15.07;13.60;;;13.90;99.90;;;;;;5040017;28;20992;-60
2023/09/04 06:43:44;;;;;;;16.00;14.40;;;14.00;99.90;;;;;;5042207;28;20490;-60
2023/09/04 06:46:11;;;;;;;18.27;14.17;;;14.10;99.90;;;;;;5039950;28;20533;-60
2023/09/04 06:48:41;;;;;;;15.67;14.00;;;14.20;99.90;;;;;;5044384;28;20475;-60
2023/09/04 06:51:09;;;;;;;16.53;14.87;;;14.40;99.90;;;;;;5041386;28;20477;-61
2023/09/04 06:53:38;;;;;;;15.50;13.97;;;14.40;99.90;;;;;;5039585;28;20992;-62
2023/09/04 06:56:06;;;;;;;16.23;14.73;;;14.60;99.90;;;;;;5041081;28;20490;-60
2023/09/04 06:58:34;;;;;;;15.20;13.60;;;14.60;99.90;;;;;;5044609;28;21045;-61
2023/09/04 07:01:02;;;;;;;14.73;13.33;;;14.70;99.90;;;;;;5043184;28;20481;-60
2023/09/04 07:03:31;;;;;;;15.63;14.10;;;14.80;99.90;;;;;;5037544;28;20495;-62
2023/09/04 07:06:00;;;;;;;14.90;13.50;;;15.00;99.90;;;;;;5039931;28;20578;-60
2023/09/04 07:08:30;;;;;;;15.97;14.37;;;15.10;99.90;;;;;;5041426;28;20470;-60
2023/09/04 07:10:58;;;;;;;15.97;14.27;;;15.20;99.90;;;;;;5040338;28;21029;-60
2023/09/04 07:13:26;;;;;;;13.27;11.93;;;15.30;99.90;;;;;;5042308;28;20600;-61
2023/09/04 07:15:54;;;;;;;13.37;12.17;;;15.40;99.90;;;;;;5037488;28;20519;-63
2023/09/04 07:18:22;;;;;;;11.77;10.73;;;15.50;99.90;;;;;;5041452;28;20493;-63
2023/09/04 07:20:50;;;;;;;12.43;11.33;;;15.60;99.90;;;;;;5042744;28;21062;-60
2023/09/04 07:23:20;;;;;;;12.20;10.80;;;15.70;99.90;;;;;;5043594;28;20490;-61
2023/09/04 07:25:57;;;;;;;12.17;11.03;;;15.80;99.90;;;;;;5044656;28;20564;-60
2023/09/04 07:28:25;;;;;;;12.30;11.20;;;15.90;99.90;;;;;;5046164;28;20470;-60
2023/09/04 07:31:09;;;;;;;11.20;10.17;;;16.10;99.90;;;;;;5044375;28;20556;-63
2023/09/04 07:33:37;;;;;;;11.77;10.47;;;16.20;99.90;;;;;;5043598;28;20473;-62
2023/09/04 07:36:05;;;;;;;11.00;10.10;;;16.30;99.90;;;;;;5041181;28;20505;-62
2023/09/04 07:38:35;;;;;;;10.43;9.33;;;16.40;99.90;;;;;;5042731;28;20473;-60
2023/09/04 07:41:03;;;;;;;8.37;7.67;;;16.50;99.90;;;;;;5045273;28;20907;-60
2023/09/04 07:43:33;;;;;;;9.70;8.90;;;16.50;99.90;;;;;;5044287;28;21073;-60
2023/09/04 07:46:01;;;;;;;8.33;7.30;;;16.60;99.90;;;;;;5041317;28;20482;-60
2023/09/04 07:48:30;;;;;;;6.90;6.30;;;16.70;99.90;;;;;;5045192;28;20668;-62
2023/09/04 07:50:58;;;;;;;8.27;7.57;;;16.80;99.90;;;;;;5043910;28;20499;-61
2023/09/04 07:53:26;;;;;;;6.53;5.93;;;16.90;99.90;;;;;;5041522;28;20586;-62
2023/09/04 07:55:56;;;;;;;6.30;5.80;;;17.00;99.90;;;;;;5033189;28;20499;-63
2023/09/04 07:58:24;;;;;;;5.90;5.40;;;17.00;99.90;;;;;;5035454;28;20471;-62
2023/09/04 08:00:54;;;;;;;5.83;5.23;;;17.10;99.90;;;;;;5038164;28;20470;-63
2023/09/04 08:03:23;;;;;;;5.10;4.70;;;17.10;99.90;;;;;;5042509;28;20498;-63
2023/09/04 08:05:51;;;;;;;5.67;5.17;;;17.20;99.90;;;;;;5042621;28;20478;-62
2023/09/04 08:08:19;;;;;;;4.57;4.10;;;17.20;99.90;;;;;;5041568;28;20891;-63
2023/09/04 08:10:50;;;;;;;6.10;5.60;;;17.30;99.90;;;;;;5043827;28;20470;-63
2023/09/04 08:13:20;;;;;;;6.37;5.53;;;17.30;99.90;;;;;;5040759;28;20473;-62
2023/09/04 08:15:48;;;;;;;5.67;5.20;;;17.40;99.90;;;;;;5042189;28;20495;-62
2023/09/04 08:18:16;;;;;;;5.63;5.13;;;17.50;99.90;;;;;;5042921;28;20819;-63
2023/09/04 08:20:44;;;;;;;5.40;4.93;;;17.60;99.90;;;;;;5039218;28;21066;-64
2023/09/04 08:23:12;;;;;;;6.07;4.27;;;17.70;99.90;;;;;;5037842;28;20494;-63
2023/09/04 08:25:40;;;;;;;5.10;4.70;;;17.70;99.90;;;;;;5038317;28;20474;-64
2023/09/04 08:28:08;;;;;;;4.47;4.07;;;17.80;99.90;;;;;;5040952;28;20467;-63
2023/09/04 08:30:38;;;;;;;4.60;4.20;;;17.90;99.90;;;;;;5040580;28;20551;-63
2023/09/04 08:33:06;;;;;;;4.33;4.03;;;17.90;99.90;;;;;;5043380;28;20553;-65
2023/09/04 08:35:34;;;;;;;4.50;3.60;;;18.00;99.90;;;;;;5040887;28;20920;-61
2023/09/04 08:38:04;;;;;;;3.60;3.30;;;18.00;99.90;;;;;;5035510;28;20462;-61
2023/09/04 08:40:33;;;;;;;3.70;3.40;;;18.10;99.90;;;;;;5036581;28;20501;-66
2023/09/04 08:43:01;;;;;;;3.83;3.40;;;18.20;99.90;;;;;;5040324;28;20477;-63
2023/09/04 08:45:31;;;;;;;4.50;3.93;;;18.30;99.90;;;;;;5036140;28;20494;-63
2023/09/04 08:48:03;;;;;;;4.07;3.77;;;18.30;99.90;;;;;;5044013;28;20528;-63
2023/09/04 08:50:32;;;;;;;3.77;3.47;;;18.40;99.90;;;;;;5037576;28;22407;-63
2023/09/04 08:53:00;;;;;;;5.37;4.00;;;18.40;99.90;;;;;;5039151;28;20501;-63
2023/09/04 08:55:29;;;;;;;3.93;3.20;;;18.50;99.90;;;;;;5037464;28;20535;-63
2023/09/04 08:57:58;;;;;;;3.43;3.23;;;18.60;99.90;;;;;;5042003;28;20490;-64
2023/09/04 09:00:26;;;;;;;5.83;3.77;;;18.60;99.90;;;;;;5042364;28;20462;-62
2023/09/04 09:02:57;;;;;;;3.33;3.10;;;18.70;99.90;;;;;;5041075;28;20504;-64
2023/09/04 09:05:33;;;;;;;3.20;3.00;;;18.70;99.90;;;;;;5044651;28;20543;-62
2023/09/04 09:08:04;;;;;;;3.07;2.77;;;18.80;99.90;;;;;;5043182;28;20470;-60
2023/09/04 09:10:32;;;;;;;3.17;2.87;;;18.90;99.90;;;;;;5039433;28;20557;-61
2023/09/04 09:13:00;;;;;;;2.90;2.70;;;19.00;99.90;;;;;;5040999;28;20558;-60
2023/09/04 09:15:31;;;;;;;3.13;2.87;;;19.00;99.90;;;;;;5036990;28;20486;-62
2023/09/04 09:17:59;;;;;;;2.90;2.70;;;19.10;99.90;;;;;;5043225;28;20530;-64
2023/09/04 09:20:33;;;;;;;3.77;3.00;;;19.20;99.90;;;;;;5042535;28;20462;-64
2023/09/04 09:23:02;;;;;;;3.73;2.73;;;19.30;99.90;;;;;;5036905;28;20477;-63
2023/09/04 09:25:30;;;;;;;3.10;2.90;;;19.40;99.90;;;;;;5046337;28;20577;-60
2023/09/04 09:28:00;;;;;;;3.90;3.60;;;19.50;99.90;;;;;;5042727;28;20474;-61
2023/09/04 09:30:35;;;;;;;5.47;2.97;;;19.50;99.90;;;;;;5045381;28;20493;-61
2023/09/04 09:33:05;;;;;;;3.73;3.47;;;19.60;99.90;;;;;;5046871;28;20504;-61
2023/09/04 09:35:35;;;;;;;3.17;2.83;;;19.70;99.90;;;;;;5047475;28;20942;-61
2023/09/04 09:38:03;;;;;;;4.50;3.10;;;19.80;99.90;;;;;;5044344;28;20528;-61
2023/09/04 09:40:32;;;;;;;2.97;2.67;;;19.80;99.90;;;;;;5045647;28;20466;-60
2023/09/04 09:43:00;;;;;;;3.27;2.97;;;19.90;99.90;;;;;;5047389;28;20474;-61
2023/09/04 09:45:32;;;;;;;2.90;2.70;;;19.90;99.90;;;;;;5043133;28;20841;-61
2023/09/04 09:48:05;;;;;;;4.47;3.53;;;20.00;99.90;;;;;;5046577;28;20474;-60
2023/09/04 09:50:37;;;;;;;3.97;3.40;;;20.10;99.90;;;;;;5046362;28;20477;-61
2023/09/04 09:53:05;;;;;;;3.07;2.87;;;20.20;99.90;;;;;;5042788;28;20492;-61
2023/09/04 09:55:35;;;;;;;3.50;3.20;;;20.30;99.90;;;;;;5037329;28;20493;-61
2023/09/04 09:58:04;;;;;;;3.20;2.90;;;20.40;99.90;;;;;;5047550;28;20470;-61
2023/09/04 10:00:33;;;;;;;3.03;2.70;;;20.40;99.90;;;;;;5047749;28;20474;-61
2023/09/04 10:03:02;;;;;;;3.07;2.77;;;20.40;99.90;;;;;;5044035;28;20567;-60
2023/09/04 10:05:33;;;;;;;3.40;3.10;;;20.50;99.90;;;;;;5045831;28;20486;-61
2023/09/04 10:08:04;;;;;;;3.20;2.97;;;20.50;99.90;;;;;;5042327;28;20931;-62
2023/09/04 10:10:37;;;;;;;5.07;3.37;;;20.60;99.90;;;;;;5044851;28;20494;-61
2023/09/04 10:13:14;;;;;;;3.20;2.90;;;20.70;99.90;;;;;;5046087;28;20559;-64
2023/09/04 10:15:46;;;;;;;3.17;2.70;;;20.70;99.90;;;;;;5041856;28;20483;-60
2023/09/04 10:18:19;;;;;;;2.97;2.30;;;20.70;99.90;;;;;;5044114;28;20474;-64
2023/09/04 10:20:48;;;;;;;2.57;2.43;;;20.70;99.90;;;;;;5043586;28;20831;-61
2023/09/04 10:23:23;;;;;;;2.33;2.13;;;20.70;99.90;;;;;;5040660;28;20932;-61
2023/09/04 10:25:56;;;;;;;2.30;2.10;;;20.80;99.90;;;;;;5039373;28;20496;-60
2023/09/04 10:28:35;;;;;;;2.60;2.27;;;20.90;99.90;;;;;;5035796;28;20474;-63
2023/09/04 10:31:12;;;;;;;4.20;2.20;;;20.90;99.90;;;;;;5044562;28;20476;-60
2023/09/04 10:33:41;;;;;;;2.13;2.03;;;21.00;99.90;;;;;;5042433;28;20549;-61
2023/09/04 10:36:09;;;;;;;1.87;1.77;;;21.10;99.90;;;;;;5038828;28;20873;-62
2023/09/04 10:38:39;;;;;;;2.47;2.27;;;21.20;99.90;;;;;;5039202;28;20470;-64
2023/09/04 10:41:14;;;;;;;3.60;2.70;;;21.30;99.90;;;;;;5040355;28;20502;-63
2023/09/04 10:43:42;;;;;;;2.17;2.07;;;21.40;99.90;;;;;;5045511;28;20902;-61
2023/09/04 10:46:12;;;;;;;2.17;2.00;;;21.50;99.90;;;;;;5042044;28;20602;-62
2023/09/04 10:48:42;;;;;;;2.47;2.30;;;21.60;99.90;;;;;;5033984;28;20462;-61
2023/09/04 10:51:29;;;;;;;3.33;1.90;;;21.80;99.90;;;;;;5041666;28;20967;-62
2023/09/04 10:54:00;;;;;;;2.33;2.13;;;21.90;99.90;;;;;;5041709;28;20565;-61
2023/09/04 10:56:29;;;;;;;2.50;2.30;;;22.00;99.90;;;;;;5035700;28;20490;-61
2023/09/04 10:59:02;;;;;;;4.70;3.27;;;22.10;99.90;;;;;;5045473;28;20461;-61
2023/09/04 11:01:38;;;;;;;3.07;2.77;;;22.30;99.90;;;;;;5044065;28;20624;-62
2023/09/04 11:04:08;;;;;;;4.03;2.87;;;22.50;99.90;;;;;;5045088;28;20474;-61
2023/09/04 11:06:38;;;;;;;2.93;2.73;;;22.60;99.90;;;;;;5040529;28;20490;-61
2023/09/04 11:09:12;;;;;;;4.50;3.10;;;22.70;99.90;;;;;;5039629;28;20470;-64
2023/09/04 11:11:41;;;;;;;3.90;2.90;;;22.70;99.90;;;;;;5043490;28;20510;-62
2023/09/04 11:14:09;;;;;;;3.13;2.83;;;22.70;99.90;;;;;;5040654;28;20498;-61
2023/09/04 11:16:44;;;;;;;3.17;2.87;;;22.80;99.90;;;;;;5037186;28;20572;-62
2023/09/04 11:19:16;;;;;;;4.00;2.87;;;22.90;99.90;;;;;;5038902;28;20477;-61
2023/09/04 11:21:45;;;;;;;3.63;3.07;;;23.00;99.90;;;;;;5046380;28;20502;-61
2023/09/04 11:24:19;;;;;;;7.00;3.47;;;23.00;99.90;;;;;;5033855;28;20589;-63
2023/09/04 11:26:47;;;;;;;3.10;2.77;;;23.10;99.90;;;;;;5028031;28;20490;-64
2023/09/04 11:29:19;;;;;;;3.70;3.37;;;23.20;99.90;;;;;;5034753;28;20543;-64
2023/09/04 11:31:47;;;;;;;3.17;2.83;;;23.30;99.90;;;;;;5039930;28;20469;-64
2023/09/04 11:34:36;;;;;;;3.70;3.10;;;23.40;99.90;;;;;;5042213;28;20483;-64
2023/09/04 11:37:05;;;;;;;5.10;2.87;;;23.50;99.90;;;;;;5036515;28;20585;-64
2023/09/04 11:39:34;;;;;;;3.27;2.97;;;23.70;99.90;;;;;;5036618;28;20558;-64
2023/09/04 11:42:03;;;;;;;3.10;2.80;;;23.90;99.90;;;;;;5036574;28;20485;-63
2023/09/04 11:44:32;;;;;;;2.47;2.27;;;24.10;99.90;;;;;;5033280;28;20855;-62
2023/09/04 11:47:00;;;;;;;2.60;2.40;;;24.20;99.90;;;;;;5041840;28;20573;-61
2023/09/04 11:49:29;;;;;;;2.20;2.10;;;24.30;99.90;;;;;;5019698;28;20869;-63
2023/09/04 11:51:57;;;;;;;2.70;2.00;;;24.50;99.90;;;;;;5031668;28;20462;-64
2023/09/04 11:54:31;;;;;;;2.80;2.60;;;24.60;99.90;;;;;;5036706;28;20578;-63
2023/09/04 11:57:01;;;;;;;3.13;2.33;;;24.70;99.90;;;;;;5027241;28;20478;-62
2023/09/04 11:59:29;;;;;;;2.60;2.40;;;24.80;99.90;;;;;;5039352;28;20467;-62
2023/09/04 12:01:57;;;;;;;2.00;1.90;;;24.80;99.90;;;;;;5034135;28;20474;-61
2023/09/04 12:04:25;;;;;;;2.33;2.13;;;24.90;99.90;;;;;;5037646;28;20481;-62
2023/09/04 12:06:54;;;;;;;2.77;2.27;;;24.90;99.90;;;;;;5032836;28;20969;-63
2023/09/04 12:09:22;;;;;;;2.90;2.30;;;25.10;99.90;;;;;;5037519;28;20469;-64
2023/09/04 12:11:50;;;;;;;3.10;2.07;;;25.20;99.90;;;;;;5034748;28;20536;-63
2023/09/04 12:14:20;;;;;;;2.60;2.40;;;25.40;99.90;;;;;;5041670;28;20555;-62
2023/09/04 12:16:48;;;;;;;2.33;2.20;;;25.50;99.90;;;;;;5035852;28;21503;-61
2023/09/04 12:19:17;;;;;;;3.77;2.30;;;25.50;99.90;;;;;;5043971;28;20563;-61
2023/09/04 12:21:45;;;;;;;1.90;1.80;;;25.50;99.90;;;;;;5038690;28;20978;-61
2023/09/04 12:24:14;;;;;;;2.07;1.97;;;25.60;99.90;;;;;;5036768;28;20469;-65
2023/09/04 12:26:42;;;;;;;1.90;1.80;;;25.70;99.90;;;;;;5037772;28;20536;-62
2023/09/04 12:29:11;;;;;;;2.00;1.80;;;25.90;99.90;;;;;;5041768;28;20471;-61
2023/09/04 12:31:42;;;;;;;2.30;2.10;;;26.10;99.90;;;;;;5039820;28;20587;-61
2023/09/04 12:34:10;;;;;;;2.13;1.90;;;26.30;99.90;;;;;;5033455;28;20952;-65
2023/09/04 12:36:39;;;;;;;3.30;2.10;;;26.40;99.90;;;;;;5031019;28;20483;-64
2023/09/04 12:39:07;;;;;;;3.77;2.40;;;26.40;99.90;;;;;;5036409;28;20943;-61
2023/09/04 12:41:36;;;;;;;1.87;1.77;;;26.60;99.90;;;;;;5035146;28;20464;-61
2023/09/04 12:44:05;;;;;;;2.70;2.50;;;26.70;98.20;;;;;;5037427;28;20572;-62
2023/09/04 12:46:34;;;;;;;2.63;2.43;;;26.90;99.90;;;;;;5038343;28;20491;-63
2023/09/04 12:49:03;;;;;;;2.10;2.00;;;27.10;99.90;;;;;;5033318;28;20529;-64
2023/09/04 12:51:32;;;;;;;1.90;1.80;;;27.20;94.60;;;;;;5037736;28;20469;-62
2023/09/04 12:53:59;;;;;;;2.00;1.80;;;27.30;95.20;;;;;;5040630;28;20471;-64
2023/09/04 12:56:27;;;;;;;2.83;2.00;;;27.40;97.50;;;;;;5034948;28;20601;-63